Time;durP1;ratioP1;P1;durP2;ratioP2;P2;SDS_P1;SDS_P2;PMS_P1;PMS_P2;Temp;Humidity;BMP_temperature;BMP_pressure;BME280_temperature;BME280_humidity;BME280_pressure;Samples;Min_cycle;Max_cycle;Signal;HPM_P1;HPM_P2
2023/02/05 00:03:01;;;;;;;14.40;7.90;;;;;;;-3.11;87.16;101695.01;218077;1259;140467;-63
2023/02/05 00:08:07;;;;;;;11.60;7.70;;;;;;;-3.11;87.25;101691.02;218299;1257;140228;-64
2023/02/05 00:13:11;;;;;;;12.60;6.80;;;;;;;-3.13;87.19;101690.98;218095;1260;140903;-63
2023/02/05 00:18:16;;;;;;;16.70;8.30;;;;;;;-3.20;87.05;101698.72;218036;1259;140334;-64
2023/02/05 00:23:20;;;;;;;12.80;7.40;;;;;;;-3.27;87.12;101704.77;217697;1257;140039;-62
2023/02/05 00:28:24;;;;;;;13.90;7.50;;;;;;;-3.34;87.24;101708.19;217928;1256;139775;-66
2023/02/05 00:33:30;;;;;;;13.60;8.20;;;;;;;-3.41;87.13;101712.48;218400;1256;140780;-66
2023/02/05 00:38:36;;;;;;;18.30;8.50;;;;;;;-3.50;86.96;101707.96;219117;1255;140045;-67
2023/02/05 00:43:41;;;;;;;14.90;7.10;;;;;;;-3.61;86.83;101712.46;218732;1256;141074;-66
2023/02/05 00:48:46;;;;;;;15.00;8.80;;;;;;;-3.73;86.55;101711.86;218047;1256;140104;-67
2023/02/05 00:53:50;;;;;;;10.50;7.00;;;;;;;-3.86;86.66;101713.49;219880;1255;140710;-67
2023/02/05 00:58:56;;;;;;;12.20;6.50;;;;;;;-3.96;86.56;101722.61;220402;1255;140308;-67
2023/02/05 01:04:01;;;;;;;14.00;7.10;;;;;;;-4.03;86.15;101731.41;220514;1256;140083;-67
2023/02/05 01:09:06;;;;;;;13.80;7.80;;;;;;;-4.11;86.17;101735.71;218361;1256;140510;-66
2023/02/05 01:14:09;;;;;;;11.30;6.90;;;;;;;-4.19;86.33;101738.80;220551;1256;141595;-66
2023/02/05 01:19:15;;;;;;;15.60;7.60;;;;;;;-4.28;86.22;101737.41;220160;1256;140260;-67
2023/02/05 01:24:19;;;;;;;16.00;8.60;;;;;;;-4.32;86.49;101739.07;217885;1259;139841;-66
2023/02/05 01:29:24;;;;;;;15.30;8.90;;;;;;;-4.38;86.54;101742.37;219732;1256;140199;-67
2023/02/05 01:34:29;;;;;;;14.10;8.90;;;;;;;-4.44;86.59;101737.83;218862;1256;140292;-67
2023/02/05 01:39:36;;;;;;;17.40;9.10;;;;;;;-4.50;86.35;101738.87;218512;1256;140371;-67
2023/02/05 01:44:42;;;;;;;19.40;9.90;;;;;;;-4.57;86.50;101738.92;219299;1259;140178;-67
2023/02/05 01:49:47;;;;;;;14.40;8.20;;;;;;;-4.65;86.21;101740.46;218007;1257;140117;-64
2023/02/05 01:54:53;;;;;;;14.70;9.20;;;;;;;-4.74;86.41;101740.80;218319;1256;139778;-67
2023/02/05 01:59:59;;;;;;;11.30;7.50;;;;;;;-4.81;86.69;101743.81;218653;1256;139828;-64
2023/02/05 02:05:10;;;;;;;14.50;8.50;;;;;;;-4.87;86.70;101749.49;218189;1257;141107;-65
2023/02/05 02:10:18;;;;;;;14.20;7.00;;;;;;;-4.90;86.92;101748.13;218160;1256;140862;-64
2023/02/05 02:15:26;;;;;;;13.00;7.10;;;;;;;-4.96;86.77;101745.37;218331;1256;139492;-66
2023/02/05 02:20:36;;;;;;;13.50;8.10;;;;;;;-5.02;86.89;101744.84;218010;1257;141298;-66
2023/02/05 02:25:47;;;;;;;16.80;7.10;;;;;;;-5.09;86.63;101749.70;218019;1256;151941;-65
2023/02/05 02:31:22;;;;;;;14.50;7.70;;;;;;;-5.13;86.99;101755.10;217813;1259;139629;-65
2023/02/05 02:36:27;;;;;;;17.70;8.00;;;;;;;-5.16;87.09;101760.98;217908;1256;141022;-64
2023/02/05 02:41:36;;;;;;;13.30;7.00;;;;;;;-5.18;86.96;101766.48;217865;1259;139704;-64
2023/02/05 02:46:53;;;;;;;12.40;6.00;;;;;;;-5.22;86.78;101762.95;218975;1256;140479;-67
2023/02/05 02:52:01;;;;;;;21.70;9.20;;;;;;;-5.28;86.89;101761.84;218008;1256;141035;-65
2023/02/05 02:57:09;;;;;;;17.10;8.60;;;;;;;-5.33;86.73;101762.30;219680;1255;140719;-67
2023/02/05 03:02:17;;;;;;;18.50;7.70;;;;;;;-5.36;86.74;101763.88;219854;1256;140177;-67
2023/02/05 03:07:35;;;;;;;10.70;6.70;;;;;;;-5.44;86.40;101760.13;218640;1255;140658;-63
2023/02/05 03:12:40;;;;;;;9.70;7.20;;;;;;;-5.53;86.38;101753.71;220233;1256;140904;-64
2023/02/05 03:17:45;;;;;;;12.80;8.40;;;;;;;-5.62;86.30;101751.25;218594;1255;140649;-63
2023/02/05 03:22:49;;;;;;;11.30;6.50;;;;;;;-5.67;86.42;101751.67;220707;1256;141174;-64
2023/02/05 03:27:54;;;;;;;12.50;6.00;;;;;;;-5.69;86.30;101752.16;218148;1256;140615;-63
2023/02/05 03:33:34;;;;;;;14.20;7.20;;;;;;;-5.75;86.01;101752.96;218091;1257;140766;-63
2023/02/05 03:38:57;;;;;;;13.40;7.40;;;;;;;-5.82;86.13;101747.81;218461;1257;140831;-64
2023/02/05 03:44:22;;;;;;;15.40;8.50;;;;;;;-5.90;86.14;101752.02;218235;1256;140139;-61
2023/02/05 03:49:51;;;;;;;14.00;7.90;;;;;;;-5.97;86.23;101753.48;218821;1256;142187;-61
2023/02/05 03:55:27;;;;;;;12.70;8.70;;;;;;;-6.04;86.22;101753.14;218911;1256;142167;-61
2023/02/05 04:00:33;;;;;;;16.40;7.40;;;;;;;-6.08;86.07;101746.56;218125;1257;140311;-62
2023/02/05 04:05:37;;;;;;;23.70;9.20;;;;;;;-6.13;86.04;101743.02;218279;1255;140660;-64
2023/02/05 04:10:41;;;;;;;12.00;8.60;;;;;;;-6.15;86.09;101744.91;218840;1257;139600;-66
2023/02/05 04:15:48;;;;;;;16.60;8.60;;;;;;;-6.17;86.20;101756.92;217852;1257;139946;-65
2023/02/05 04:20:53;;;;;;;14.20;7.40;;;;;;;-6.15;86.41;101760.96;217859;1259;140546;-67
2023/02/05 04:25:57;;;;;;;18.00;8.00;;;;;;;-6.12;86.49;101757.72;217665;1255;139998;-68
2023/02/05 04:31:05;;;;;;;16.30;7.60;;;;;;;-6.11;86.36;101759.36;218826;1256;140796;-65
2023/02/05 04:36:11;;;;;;;15.00;8.50;;;;;;;-6.08;86.24;101764.91;218844;1256;139831;-64
2023/02/05 04:41:16;;;;;;;16.10;8.90;;;;;;;-6.05;86.49;101762.71;217902;1259;141885;-65
2023/02/05 04:46:20;;;;;;;17.20;8.40;;;;;;;-6.03;86.61;101776.46;218950;1255;140680;-67
2023/02/05 04:51:24;;;;;;;10.60;7.30;;;;;;;-5.98;86.77;101773.61;218562;1257;141104;-65
2023/02/05 04:56:28;;;;;;;11.40;5.70;;;;;;;-5.99;86.34;101769.13;219599;1256;140666;-65
2023/02/05 05:01:33;;;;;;;16.50;8.20;;;;;;;-6.05;86.11;101772.02;220426;1256;141172;-66
2023/02/05 05:06:38;;;;;;;19.80;7.10;;;;;;;-6.00;86.34;101772.33;220689;1256;140687;-67
2023/02/05 05:11:42;;;;;;;14.30;9.10;;;;;;;-5.91;86.36;101775.82;220372;1256;139741;-67
2023/02/05 05:16:48;;;;;;;14.70;6.90;;;;;;;-5.82;86.50;101775.50;220262;1256;139982;-67
2023/02/05 05:21:52;;;;;;;15.10;7.60;;;;;;;-5.73;86.47;101774.65;219189;1256;724840;-66
2023/02/05 05:26:58;;;;;;;12.00;9.10;;;;;;;-5.58;86.77;101778.59;218567;1257;140766;-63
2023/02/05 05:32:03;;;;;;;17.20;8.00;;;;;;;-5.49;86.80;101787.21;218937;1257;140668;-65
2023/02/05 05:37:08;;;;;;;13.80;9.30;;;;;;;-5.43;86.86;101792.30;219022;1256;140037;-67
2023/02/05 05:47:36;;;;;;;17.60;9.60;;;;;;;-5.37;86.60;101803.09;217884;1256;140039;-65
2023/02/05 05:52:40;;;;;;;14.90;8.50;;;;;;;-5.37;86.58;101808.28;218292;1257;154445;-67
2023/02/05 05:57:45;;;;;;;16.80;9.40;;;;;;;-5.40;86.40;101814.17;217941;1257;140230;-66
2023/02/05 06:02:51;;;;;;;14.50;8.20;;;;;;;-5.40;86.80;101829.77;218847;1257;140193;-66
2023/02/05 06:07:55;;;;;;;13.80;8.80;;;;;;;-5.41;86.80;101839.85;218951;1256;140100;-63
2023/02/05 06:13:00;;;;;;;18.00;8.70;;;;;;;-5.37;86.69;101840.89;218100;1257;140178;-63
2023/02/05 06:18:04;;;;;;;19.70;9.10;;;;;;;-5.33;86.81;101838.77;218585;1259;141178;-65
2023/02/05 06:23:09;;;;;;;13.70;8.90;;;;;;;-5.30;86.88;101838.91;218144;1257;139904;-65
2023/02/05 06:28:15;;;;;;;16.70;7.00;;;;;;;-5.25;87.13;101844.73;217777;1259;140536;-67
2023/02/05 06:33:19;;;;;;;14.20;9.10;;;;;;;-5.19;87.20;101849.91;219708;1257;143789;-69
2023/02/05 06:38:23;;;;;;;15.60;8.20;;;;;;;-5.13;87.23;101854.63;218981;1257;141268;-68
2023/02/05 06:43:27;;;;;;;16.00;8.90;;;;;;;-5.07;87.09;101861.76;217934;1258;141098;-67
2023/02/05 06:48:31;;;;;;;17.30;8.50;;;;;;;-4.99;87.12;101863.11;218943;1257;141309;-67
2023/02/05 06:53:37;;;;;;;12.80;8.20;;;;;;;-4.91;86.96;101862.27;218954;1257;140119;-67
2023/02/05 06:58:42;;;;;;;12.90;7.80;;;;;;;-4.82;87.07;101862.63;220307;1256;140868;-66
2023/02/05 07:03:47;;;;;;;14.40;8.30;;;;;;;-4.73;86.93;101874.84;220181;1257;140176;-67
2023/02/05 07:08:52;;;;;;;15.20;9.20;;;;;;;-4.65;86.84;101891.92;220504;1256;141036;-67
2023/02/05 07:14:00;;;;;;;18.40;10.20;;;;;;;-4.57;86.63;101895.63;218857;1256;140980;-64
2023/02/05 07:19:05;;;;;;;19.10;8.80;;;;;;;-4.49;86.69;101907.46;217875;1257;141457;-65
2023/02/05 07:24:08;;;;;;;18.70;10.40;;;;;;;-4.45;86.46;101915.94;219973;1257;141846;-66
2023/02/05 07:29:13;;;;;;;20.00;11.00;;;;;;;-4.43;86.32;101913.91;218707;1256;141257;-64
2023/02/05 07:34:18;;;;;;;23.40;10.70;;;;;;;-4.34;86.64;101919.20;219348;1257;140439;-65
2023/02/05 07:39:26;;;;;;;31.90;15.40;;;;;;;-4.26;86.55;101927.91;218393;1257;140668;-66
2023/02/05 07:44:32;;;;;;;24.90;11.50;;;;;;;-4.18;86.34;101934.71;220350;1257;141136;-67
2023/02/05 07:49:37;;;;;;;28.00;13.20;;;;;;;-4.11;86.16;101945.83;220386;1257;141358;-63
2023/02/05 08:00:02;;;;;;;18.40;11.20;;;;;;;-3.90;86.14;101955.52;213841;1298;659310;-63
2023/02/05 08:05:06;;;;;;;20.50;13.20;;;;;;;-3.79;85.99;101956.96;216470;1263;140940;-66
2023/02/05 08:10:13;;;;;;;19.80;12.10;;;;;;;-3.69;86.09;101961.48;217342;1266;230300;-65
2023/02/05 08:15:17;;;;;;;14.60;10.60;;;;;;;-3.59;86.01;101961.06;216998;1260;141609;-66
2023/02/05 08:20:21;;;;;;;16.60;9.00;;;;;;;-3.52;85.77;101965.67;218109;1262;139890;-63
2023/02/05 08:25:24;;;;;;;18.80;8.90;;;;;;;-3.47;85.50;101965.41;216996;1262;140051;-67
2023/02/05 08:30:29;;;;;;;12.00;8.10;;;;;;;-3.39;85.67;101966.48;217865;1263;140604;-63
2023/02/05 08:35:33;;;;;;;11.60;7.80;;;;;;;-3.27;85.51;101969.03;218312;1263;140327;-66
2023/02/05 08:40:37;;;;;;;8.80;5.90;;;;;;;-3.14;85.26;101960.45;216889;1265;139469;-64
2023/02/05 08:45:47;;;;;;;9.70;6.40;;;;;;;-2.99;85.02;101959.52;217643;1264;233513;-64
2023/02/05 08:50:51;;;;;;;8.30;6.00;;;;;;;-2.83;84.59;101959.25;217589;1260;139261;-62
2023/02/05 08:56:01;;;;;;;10.10;6.70;;;;;;;-2.67;84.33;101970.45;219680;1263;140195;-63
2023/02/05 09:01:11;;;;;;;10.00;5.10;;;;;;;-2.47;84.08;101969.54;219796;1263;139500;-62
2023/02/05 09:06:15;;;;;;;8.00;5.50;;;;;;;-2.29;83.55;101969.46;219837;1263;139485;-63
2023/02/05 09:11:22;;;;;;;10.20;5.20;;;;;;;-2.15;83.12;101975.30;219898;1263;139583;-64
2023/02/05 09:16:26;;;;;;;7.50;4.70;;;;;;;-1.99;82.62;101978.47;219764;1263;140750;-65
2023/02/05 09:21:31;;;;;;;8.40;5.20;;;;;;;-1.84;82.61;101984.61;217120;1265;139537;-62
2023/02/05 09:26:36;;;;;;;6.80;4.50;;;;;;;-1.68;82.01;101988.80;218592;1262;139504;-68
2023/02/05 09:31:41;;;;;;;9.20;5.00;;;;;;;-1.55;81.73;101988.17;218419;1265;140906;-63
2023/02/05 09:36:45;;;;;;;6.70;5.30;;;;;;;-1.48;81.37;101987.48;218967;1263;139882;-69
2023/02/05 09:42:00;;;;;;;5.70;3.90;;;;;;;-1.40;81.07;101989.55;216969;1266;139247;-65
2023/02/05 09:47:35;;;;;;;8.70;3.90;;;;;;;-1.34;81.01;101989.01;217930;1262;140726;-67
2023/02/05 09:52:43;;;;;;;4.50;3.40;;;;;;;-1.29;80.39;101988.32;217024;1266;140064;-67
2023/02/05 09:57:52;;;;;;;12.40;3.60;;;;;;;-1.26;80.21;101994.73;218363;1264;139360;-65
2023/02/05 10:03:06;;;;;;;9.00;3.70;;;;;;;-1.20;80.17;101994.11;217072;1265;139878;-66
2023/02/05 10:08:25;;;;;;;5.80;3.60;;;;;;;-1.21;79.50;101994.05;216653;1266;140698;-66
2023/02/05 10:13:35;;;;;;;7.30;4.70;;;;;;;-1.25;78.79;101995.05;217680;1265;140239;-67
2023/02/05 10:19:13;;;;;;;4.70;3.40;;;;;;;-1.25;79.09;101987.88;218234;1265;139066;-65
2023/02/05 10:24:22;;;;;;;6.20;4.40;;;;;;;-1.14;79.17;101982.88;217549;1265;139703;-66
2023/02/05 10:29:44;;;;;;;;;;;;;;;-1.00;78.67;101975.19;217164;1265;139230;-65
2023/02/05 10:34:58;;;;;;;5.30;4.00;;;;;;;-0.90;78.67;101958.77;217184;1265;126733;-66
2023/02/05 10:40:21;;;;;;;4.30;3.90;;;;;;;-0.85;78.22;101947.37;216705;1266;139922;-62
2023/02/05 10:45:28;;;;;;;3.50;2.90;;;;;;;-0.74;77.69;101935.83;219767;1264;139544;-62
2023/02/05 10:50:43;;;;;;;8.10;3.80;;;;;;;-0.65;77.48;101931.17;217756;1265;139208;-65
2023/02/05 10:55:49;;;;;;;6.50;4.10;;;;;;;-0.56;77.27;101927.55;219596;1264;139901;-64
2023/02/05 11:00:54;;;;;;;4.60;3.60;;;;;;;-0.58;76.68;101918.92;219698;1263;140008;-66
2023/02/05 11:05:59;;;;;;;5.50;4.20;;;;;;;-0.59;76.20;101915.67;219986;1262;140401;-65
2023/02/05 11:11:06;;;;;;;3.00;2.80;;;;;;;-0.30;76.18;101905.73;219803;1263;141153;-66
2023/02/05 11:16:11;;;;;;;4.90;3.80;;;;;;;-0.14;75.44;101890.08;219233;1263;140024;-67
2023/02/05 11:21:16;;;;;;;10.10;6.00;;;;;;;0.02;75.48;101891.30;218633;1262;139862;-65
2023/02/05 11:26:23;;;;;;;5.40;4.10;;;;;;;0.22;75.24;101887.86;217876;1262;139543;-67
2023/02/05 11:31:32;;;;;;;5.50;3.80;;;;;;;0.27;74.27;101887.81;216570;1266;140148;-67
2023/02/05 11:36:49;;;;;;;5.90;3.90;;;;;;;0.38;74.24;101879.48;217880;1264;140330;-65
2023/02/05 11:41:55;;;;;;;6.60;5.00;;;;;;;0.58;74.54;101888.12;217267;1263;140081;-62
2023/02/05 11:47:01;;;;;;;6.60;4.40;;;;;;;0.77;73.91;101883.10;217216;1264;138661;-62
2023/02/05 11:52:12;;;;;;;4.70;2.80;;;;;;;0.83;73.37;101880.38;216651;1264;139252;-63
2023/02/05 11:57:20;;;;;;;7.20;4.30;;;;;;;0.79;72.96;101880.86;217923;1264;139485;-64
2023/02/05 12:02:28;;;;;;;5.30;4.20;;;;;;;0.75;72.40;101884.36;217061;1264;140525;-65
2023/02/05 12:07:41;;;;;;;4.90;3.60;;;;;;;0.70;72.16;101884.39;217391;1264;140603;-64
2023/02/05 12:13:06;;;;;;;4.80;3.50;;;;;;;0.74;72.23;101885.15;217119;1260;140301;-65
2023/02/05 12:18:23;;;;;;;5.30;4.10;;;;;;;0.80;72.14;101878.05;217789;1261;138324;-66
2023/02/05 12:23:36;;;;;;;33.60;5.20;;;;;;;0.78;71.28;101879.73;216719;1261;139610;-64
2023/02/05 12:29:29;;;;;;;7.00;3.60;;;;;;;0.73;71.49;101887.46;218199;1264;140436;-66
2023/02/05 12:35:12;;;;;;;4.70;3.50;;;;;;;0.72;71.11;101887.58;216834;1264;139230;-63
2023/02/05 12:40:38;;;;;;;5.60;4.20;;;;;;;0.69;70.95;101880.77;218714;1260;139014;-62
2023/02/05 12:46:03;;;;;;;5.10;4.20;;;;;;;0.66;71.04;101876.63;218288;1261;139570;-61
2023/02/05 12:51:26;;;;;;;17.50;9.70;;;;;;;0.69;70.93;101872.35;218670;1260;139849;-64
2023/02/05 12:56:48;;;;;;;7.00;4.80;;;;;;;0.65;70.24;101865.64;219596;1261;140808;-65
2023/02/05 13:02:19;;;;;;;7.00;5.00;;;;;;;0.59;69.96;101873.48;219961;1261;139847;-69
2023/02/05 13:07:56;;;;;;;8.40;4.50;;;;;;;0.57;70.04;101880.71;219821;1260;139751;-69
2023/02/05 13:13:06;;;;;;;7.10;4.30;;;;;;;0.63;70.10;101883.67;219602;1260;139110;-65
2023/02/05 13:18:10;;;;;;;5.70;4.00;;;;;;;0.60;69.85;101882.92;216789;1263;138846;-63
2023/02/05 13:28:48;;;;;;;6.00;4.60;;;;;;;0.28;69.73;101886.88;217374;1263;138901;-66
2023/02/05 13:33:56;;;;;;;5.80;4.70;;;;;;;0.27;69.73;101884.74;217211;1260;140058;-67
2023/02/05 13:39:22;;;;;;;7.50;4.70;;;;;;;0.13;69.41;101873.52;217715;1260;139454;-66
2023/02/05 13:45:04;;;;;;;7.50;5.20;;;;;;;-0.01;69.52;101866.92;217262;1260;139313;-68
2023/02/05 13:50:14;;;;;;;6.00;4.10;;;;;;;-0.02;69.37;101862.63;217398;1260;140714;-68
2023/02/05 13:55:54;;;;;;;7.30;4.30;;;;;;;-0.11;69.83;101855.04;217687;1260;138959;-68
2023/02/05 14:01:05;;;;;;;6.10;4.10;;;;;;;-0.30;69.21;101857.52;217972;1261;139334;-69
2023/02/05 14:06:20;;;;;;;8.50;4.90;;;;;;;-0.45;69.50;101860.87;217948;1260;140952;-66
2023/02/05 14:11:27;;;;;;;6.50;4.40;;;;;;;-0.56;69.39;101864.13;217936;1260;139678;-69
2023/02/05 14:16:32;;;;;;;9.50;6.50;;;;;;;-0.74;69.28;101863.54;217089;1261;140088;-65
2023/02/05 14:21:45;;;;;;;9.70;4.60;;;;;;;-0.84;69.60;101864.56;217789;1260;140198;-64
2023/02/05 14:26:58;;;;;;;9.50;4.70;;;;;;;-0.86;69.89;101870.66;216985;1263;138594;-63
2023/02/05 14:32:05;;;;;;;9.00;6.10;;;;;;;-0.89;69.88;101879.77;216743;1263;138681;-63
2023/02/05 14:37:48;;;;;;;7.30;5.30;;;;;;;-1.00;70.19;101887.02;218639;1260;139486;-62
2023/02/05 14:43:01;;;;;;;9.80;5.60;;;;;;;-1.11;70.23;101891.23;218741;1260;140352;-65
2023/02/05 14:48:30;;;;;;;7.40;5.00;;;;;;;-1.17;70.40;101888.23;218441;1260;139317;-63
2023/02/05 14:53:38;;;;;;;9.70;5.60;;;;;;;-1.27;70.07;101898.02;219898;1260;139266;-63
2023/02/05 14:58:45;;;;;;;9.50;5.30;;;;;;;-1.44;70.01;101905.23;216955;1260;140975;-62
2023/02/05 15:03:51;;;;;;;9.20;6.10;;;;;;;-1.57;70.43;101911.55;220003;1260;140398;-65
2023/02/05 15:09:19;;;;;;;12.90;7.90;;;;;;;-1.71;70.55;101909.52;219892;1260;139425;-64
2023/02/05 15:14:34;;;;;;;9.10;6.50;;;;;;;-1.89;70.37;101903.95;218420;1260;140946;-63
2023/02/05 15:19:48;;;;;;;8.50;5.50;;;;;;;-1.99;70.69;101904.24;219509;1260;139559;-63
2023/02/05 15:24:53;;;;;;;12.70;6.40;;;;;;;-2.13;70.69;101908.52;219022;1260;138572;-65
2023/02/05 15:30:03;;;;;;;9.30;5.90;;;;;;;-2.20;71.42;101912.98;218779;1260;138970;-63
2023/02/05 15:35:25;;;;;;;14.20;7.00;;;;;;;-2.24;71.70;101923.70;216910;1260;139306;-67
2023/02/05 15:40:37;;;;;;;11.50;7.70;;;;;;;-2.30;71.83;101933.78;218354;1260;139363;-67
2023/02/05 15:45:46;;;;;;;15.40;6.60;;;;;;;-2.39;71.99;101944.60;217163;1261;139918;-64
2023/02/05 15:50:57;;;;;;;28.20;14.80;;;;;;;-2.51;72.11;101948.52;217183;1261;139381;-63
2023/02/05 15:56:16;;;;;;;49.80;15.10;;;;;;;-2.62;72.27;101944.03;218062;1260;139794;-66
2023/02/05 16:01:27;;;;;;;35.00;15.60;;;;;;;-2.70;72.56;101942.76;216907;1260;139446;-67
2023/02/05 16:06:35;;;;;;;40.30;17.00;;;;;;;-2.64;72.77;101958.80;218327;1261;139852;-67
2023/02/05 16:11:41;;;;;;;59.20;22.50;;;;;;;-2.64;72.78;101962.06;217089;1260;140186;-67
2023/02/05 16:16:57;;;;;;;23.70;11.90;;;;;;;-2.66;72.89;101963.58;216887;1263;139306;-62
2023/02/05 16:22:25;;;;;;;30.70;12.60;;;;;;;-2.68;73.12;101961.30;217231;1262;139323;-62
2023/02/05 16:27:38;;;;;;;24.60;11.70;;;;;;;-2.73;73.19;101959.80;218216;1260;139402;-63
2023/02/05 16:32:47;;;;;;;23.10;10.30;;;;;;;-2.78;73.24;101963.29;217932;1260;140063;-67
2023/02/05 16:37:52;;;;;;;16.30;11.90;;;;;;;-2.83;73.35;101959.61;217900;1261;139332;-69
2023/02/05 16:42:58;;;;;;;33.50;12.00;;;;;;;-2.87;73.74;101955.32;217241;1263;139576;-68
2023/02/05 16:48:28;;;;;;;26.10;11.30;;;;;;;-2.88;73.72;101969.65;217584;1260;140860;-62
2023/02/05 16:53:35;;;;;;;31.30;15.10;;;;;;;-2.86;73.71;101977.00;218374;1260;141345;-65
2023/02/05 16:58:50;;;;;;;30.40;14.70;;;;;;;-2.86;73.89;101978.58;220073;1260;138986;-66
2023/02/05 17:03:55;;;;;;;40.70;17.80;;;;;;;-2.84;73.93;101982.63;220008;1260;139983;-68
2023/02/05 17:08:59;;;;;;;53.50;19.80;;;;;;;-2.84;74.21;101986.83;219851;1259;139457;-68
2023/02/05 17:14:31;;;;;;;26.60;12.20;;;;;;;-2.89;74.24;101984.33;217511;1263;140773;-66
2023/02/05 17:19:39;;;;;;;85.70;24.90;;;;;;;-2.85;74.23;101985.48;217631;1260;140401;-67
2023/02/05 17:24:47;;;;;;;58.10;23.60;;;;;;;-2.81;74.42;101981.42;218406;1260;141177;-67
2023/02/05 17:29:51;;;;;;;57.50;21.80;;;;;;;-2.81;74.54;101988.02;218673;1260;139082;-66
2023/02/05 17:34:56;;;;;;;52.60;19.90;;;;;;;-2.82;74.47;101989.98;217855;1260;140309;-65
2023/02/05 17:40:02;;;;;;;49.20;19.50;;;;;;;-2.81;74.67;101984.88;217156;1260;140610;-66
2023/02/05 17:45:21;;;;;;;43.60;17.90;;;;;;;-2.83;74.91;101983.77;217094;1262;139712;-61
2023/02/05 17:50:25;;;;;;;31.40;14.20;;;;;;;-2.88;75.00;101992.95;217292;1260;139521;-63
2023/02/05 17:55:31;;;;;;;34.00;15.40;;;;;;;-2.92;75.35;101994.08;216853;1260;139185;-68
2023/02/05 18:00:35;;;;;;;38.00;17.20;;;;;;;-2.89;75.08;102001.73;217781;1264;140537;-66
2023/02/05 18:05:40;;;;;;;36.00;15.30;;;;;;;-2.88;75.38;102003.91;218044;1260;139550;-66
2023/02/05 18:10:46;;;;;;;23.40;10.30;;;;;;;-2.93;75.24;101992.58;217281;1260;139825;-64
2023/02/05 18:15:53;;;;;;;19.10;9.40;;;;;;;-3.01;75.18;101988.89;217702;1261;139186;-64
2023/02/05 18:20:58;;;;;;;20.40;13.60;;;;;;;-3.09;75.32;101999.98;216834;1260;140821;-64
2023/02/05 18:26:05;;;;;;;22.00;12.30;;;;;;;-3.04;75.52;102011.52;217757;1260;140466;-65
2023/02/05 18:31:10;;;;;;;22.90;13.30;;;;;;;-3.00;75.86;102003.97;216903;1261;139257;-64
2023/02/05 18:36:15;;;;;;;27.20;15.90;;;;;;;-3.00;76.00;101994.60;218033;1260;141449;-64
2023/02/05 18:41:25;;;;;;;21.40;14.10;;;;;;;-3.01;75.98;101991.17;218402;1260;139796;-62
2023/02/05 18:46:30;;;;;;;32.70;16.60;;;;;;;-3.02;76.11;101989.84;219853;1260;140281;-63
2023/02/05 18:51:34;;;;;;;25.90;14.30;;;;;;;-3.06;76.13;101988.98;219931;1260;139364;-65
2023/02/05 18:56:39;;;;;;;26.40;12.40;;;;;;;-2.97;76.15;101994.77;219864;1260;141125;-62
2023/02/05 19:01:43;;;;;;;56.10;23.30;;;;;;;-2.91;76.56;101997.84;218029;1264;139855;-67
2023/02/05 19:06:52;;;;;;;68.20;25.20;;;;;;;-2.88;76.32;102002.89;218536;1260;139268;-64
2023/02/05 19:11:59;;;;;;;86.80;28.50;;;;;;;-2.92;76.06;101995.34;218885;1260;139681;-63
2023/02/05 19:17:04;;;;;;;29.50;14.70;;;;;;;-2.97;76.27;101996.45;217579;1262;139223;-66
2023/02/05 19:22:11;;;;;;;29.10;15.20;;;;;;;-3.04;76.32;102004.90;216891;1260;140462;-68
2023/02/05 19:27:16;;;;;;;34.40;15.90;;;;;;;-3.05;76.54;102010.83;217663;1260;140101;-64
2023/02/05 19:32:22;;;;;;;39.20;16.00;;;;;;;-3.05;76.55;102014.50;217235;1260;139611;-66
2023/02/05 19:37:28;;;;;;;46.40;17.00;;;;;;;-3.11;76.69;102010.04;218271;1261;139449;-69
2023/02/05 19:42:33;;;;;;;39.90;17.30;;;;;;;-3.20;76.81;102012.27;218749;1261;140466;-69
2023/02/05 19:47:37;;;;;;;30.00;15.80;;;;;;;-3.22;76.88;102008.05;216784;1260;139023;-65
2023/02/05 19:52:42;;;;;;;26.70;13.10;;;;;;;-3.24;77.13;102015.11;217559;1260;140299;-63
2023/02/05 19:57:48;;;;;;;28.40;14.30;;;;;;;-3.24;77.13;102014.94;218424;1258;140097;-66
2023/02/05 20:02:54;;;;;;;35.20;17.30;;;;;;;-3.17;77.45;102020.29;218004;1257;140053;-68
2023/02/05 20:08:00;;;;;;;30.40;15.20;;;;;;;-3.08;77.67;102020.98;218282;1257;140173;-65
2023/02/05 20:13:06;;;;;;;24.00;13.40;;;;;;;-3.06;77.83;102023.56;218383;1257;935224;-62
2023/02/05 20:18:10;;;;;;;27.50;14.90;;;;;;;-3.04;77.89;102032.39;217516;1258;138743;-64
2023/02/05 20:23:18;;;;;;;45.80;20.30;;;;;;;-3.03;77.87;102039.27;217850;1258;140982;-65
2023/02/05 20:28:26;;;;;;;33.20;18.60;;;;;;;-3.07;77.83;102045.95;217599;1260;139986;-66
2023/02/05 20:33:31;;;;;;;42.80;18.40;;;;;;;-3.11;77.69;102054.20;218251;1258;140023;-70
2023/02/05 20:38:36;;;;;;;48.00;22.80;;;;;;;-3.10;78.16;102054.48;218185;1257;139858;-64
2023/02/05 20:43:43;;;;;;;52.60;23.10;;;;;;;-3.05;77.72;102050.52;217312;1257;140018;-61
2023/02/05 20:48:48;;;;;;;52.90;23.50;;;;;;;-3.02;77.62;102058.02;220214;1257;139599;-65
2023/02/05 20:53:57;;;;;;;48.80;22.00;;;;;;;-3.00;77.88;102058.77;218089;1259;139652;-62
2023/02/05 20:59:05;;;;;;;45.20;23.20;;;;;;;-3.00;77.81;102052.12;219328;1259;140025;-67
2023/02/05 21:04:10;;;;;;;45.00;22.80;;;;;;;-3.03;77.75;102058.41;219120;1258;139865;-62
2023/02/05 21:09:15;;;;;;;51.00;25.00;;;;;;;-3.07;77.78;102067.69;219703;1259;139922;-66
2023/02/05 21:14:21;;;;;;;60.70;30.90;;;;;;;-3.09;77.84;102070.42;219189;1257;139544;-61
2023/02/05 21:19:27;;;;;;;56.20;26.50;;;;;;;-3.09;77.90;102071.64;218496;1257;140215;-63
2023/02/05 21:24:33;;;;;;;49.30;25.40;;;;;;;-3.05;77.62;102064.93;217559;1261;140870;-63
2023/02/05 21:29:38;;;;;;;56.30;25.30;;;;;;;-3.00;77.59;102067.96;217925;1258;139843;-65
2023/02/05 21:34:43;;;;;;;53.40;24.80;;;;;;;-3.02;77.70;102081.67;218782;1258;139157;-64
2023/02/05 21:39:48;;;;;;;46.00;23.40;;;;;;;-3.05;77.99;102096.94;217845;1257;163136;-65
2023/02/05 21:44:56;;;;;;;41.30;19.20;;;;;;;-3.06;77.93;102096.82;217950;1259;140151;-65
2023/02/05 21:50:05;;;;;;;32.00;16.80;;;;;;;-3.11;78.11;102104.77;217209;1257;140203;-62
2023/02/05 21:55:10;;;;;;;42.10;19.90;;;;;;;-3.12;78.20;102105.02;218014;1261;139275;-61
2023/02/05 22:00:15;;;;;;;34.70;18.40;;;;;;;-3.12;78.25;102103.48;217747;1259;140081;-62
2023/02/05 22:05:20;;;;;;;34.30;17.90;;;;;;;-3.12;78.30;102109.19;218997;1259;140527;-64
2023/02/05 22:10:25;;;;;;;34.40;17.90;;;;;;;-3.04;78.21;102121.95;217500;1262;139989;-64
2023/02/05 22:15:30;;;;;;;37.10;18.90;;;;;;;-2.97;78.26;102129.73;218355;1262;140320;-67
2023/02/05 22:20:34;;;;;;;32.90;19.60;;;;;;;-2.93;78.41;102132.45;218650;1259;139066;-63
2023/02/05 22:56:50;;;;;;;26.60;13.70;;;;;;;-2.73;77.99;102121.65;215417;1295;656787;-65
2023/02/05 23:01:55;;;;;;;25.00;14.10;;;;;;;-2.78;78.00;102114.01;219671;1263;139309;-67
2023/02/05 23:07:01;;;;;;;25.70;12.70;;;;;;;-2.83;78.07;102120.54;219235;1262;483082;-66
2023/02/05 23:12:05;;;;;;;32.10;16.10;;;;;;;-2.82;78.03;102130.97;219907;1260;139226;-64
2023/02/05 23:17:12;;;;;;;31.30;13.70;;;;;;;-2.81;78.30;102134.02;219014;1260;138750;-65
2023/02/05 23:22:18;;;;;;;29.90;15.00;;;;;;;-2.80;77.93;102128.55;218575;1262;140656;-67
2023/02/05 23:27:24;;;;;;;29.10;16.40;;;;;;;-2.77;77.76;102132.41;218344;1259;139834;-66
2023/02/05 23:32:30;;;;;;;38.40;17.10;;;;;;;-2.74;77.87;102126.96;216991;1262;139221;-64
2023/02/05 23:37:34;;;;;;;33.50;18.20;;;;;;;-2.75;77.74;102113.27;218428;1259;141620;-62
2023/02/05 23:42:41;;;;;;;27.90;13.10;;;;;;;-2.79;77.85;102098.55;217479;1259;138898;-65
2023/02/05 23:47:46;;;;;;;20.50;11.50;;;;;;;-2.81;78.07;102091.57;217037;1259;139048;-62
2023/02/05 23:52:50;;;;;;;21.00;11.70;;;;;;;-2.85;78.42;102097.70;217868;1260;139351;-64
2023/02/05 23:57:53;;;;;;;16.20;10.60;;;;;;;-2.86;78.20;102110.30;217104;1260;140954;-61
